createdAt,value
2023-01-21T00:04:40.597Z,-0.50
2023-01-21T00:09:42.508Z,-0.60
2023-01-21T00:14:44.495Z,-0.50
2023-01-21T00:19:46.478Z,-0.50
2023-01-21T00:24:48.336Z,-0.50
2023-01-21T00:29:50.238Z,-0.50
2023-01-21T00:34:52.198Z,-0.50
2023-01-21T00:39:54.099Z,-0.50
2023-01-21T00:44:57.470Z,-0.50
2023-01-21T00:49:59.336Z,-0.50
2023-01-21T00:55:01.254Z,-0.50
2023-01-21T01:00:03.597Z,-0.50
2023-01-21T01:05:08.210Z,-0.40
2023-01-21T01:10:11.020Z,-0.40
2023-01-21T01:15:15.061Z,-0.40
2023-01-21T01:20:17.378Z,-0.30
2023-01-21T01:25:19.558Z,-0.20
2023-01-21T01:30:21.595Z,-0.20
2023-01-21T01:35:23.724Z,-0.30
2023-01-21T01:40:25.620Z,-0.40
2023-01-21T01:45:27.855Z,-0.40
2023-01-21T01:50:35.353Z,-0.30
2023-01-21T01:55:38.658Z,-0.40
2023-01-21T02:00:40.574Z,-0.30
2023-01-21T02:05:43.939Z,-0.20
2023-01-21T02:10:46.074Z,-0.30
2023-01-21T02:15:54.461Z,-0.20
2023-01-21T02:21:41.815Z,-0.20
2023-01-21T02:27:02.422Z,-0.20
2023-01-21T02:32:22.453Z,-0.20
2023-01-21T02:37:30.180Z,-0.20
2023-01-21T02:43:05.381Z,-0.20
2023-01-21T02:48:21.002Z,-0.20
2023-01-21T02:53:31.688Z,-0.10
2023-01-21T02:58:37.300Z,-0.10
2023-01-21T03:03:49.044Z,-0.10
2023-01-21T03:08:55.921Z,-0.20
2023-01-21T03:14:20.935Z,-0.20
2023-01-21T03:19:39.727Z,-0.10
2023-01-21T03:24:46.272Z,-0.10
2023-01-21T03:29:51.468Z,-0.20
2023-01-21T03:35:01.412Z,-0.30
2023-01-21T03:40:16.100Z,-0.30
2023-01-21T03:45:43.800Z,-0.30
2023-01-21T03:50:52.105Z,-0.20
2023-01-21T03:55:54.026Z,-0.20
2023-01-21T04:00:56.728Z,-0.20
2023-01-21T04:05:58.707Z,-0.10
2023-01-21T04:11:00.617Z,-0.30
2023-01-21T04:16:05.975Z,-0.30
2023-01-21T04:21:08.038Z,-0.20
2023-01-21T04:26:10.046Z,-0.30
2023-01-21T04:31:11.980Z,-0.20
2023-01-21T04:36:13.860Z,-0.10
2023-01-21T04:41:15.866Z,-0.10
2023-01-21T04:46:17.927Z,-0.20
2023-01-21T04:51:19.965Z,-0.20
2023-01-21T04:56:21.886Z,-0.20
2023-01-21T05:01:23.854Z,-0.30
2023-01-21T05:06:41.230Z,-0.40
2023-01-21T05:11:43.190Z,-0.30
2023-01-21T05:16:45.223Z,-0.30
2023-01-21T05:21:47.151Z,-0.30
2023-01-21T05:26:49.750Z,-0.20
2023-01-21T05:31:51.706Z,-0.30
2023-01-21T05:36:53.598Z,-0.30
2023-01-21T05:41:55.545Z,-0.20
2023-01-21T05:46:57.437Z,-0.20
2023-01-21T05:51:59.308Z,-0.30
2023-01-21T05:57:01.553Z,-0.20
2023-01-21T06:02:03.469Z,-0.20
2023-01-21T06:07:05.406Z,-0.30
2023-01-21T06:12:07.323Z,-0.20
2023-01-21T06:17:09.204Z,-0.30
2023-01-21T06:22:15.476Z,-0.30
2023-01-21T06:27:17.362Z,-0.30
2023-01-21T06:32:19.276Z,-0.30
2023-01-21T06:37:21.255Z,-0.40
2023-01-21T06:42:29.081Z,-0.30
2023-01-21T06:47:31.063Z,-0.10
2023-01-21T06:52:32.948Z,-0.20
2023-01-21T06:57:34.866Z,-0.10
2023-01-21T07:02:38.362Z,-0.20
2023-01-21T07:07:40.339Z,-0.10
2023-01-21T07:12:42.300Z,0.00
2023-01-21T07:17:44.320Z,0.00
2023-01-21T07:22:46.223Z,0.10
2023-01-21T07:27:48.098Z,0.20
2023-01-21T07:32:50.044Z,0.30
2023-01-21T07:37:52.036Z,0.40
2023-01-21T07:42:55.056Z,0.60
2023-01-21T07:47:57.151Z,0.70
2023-01-21T07:53:02.251Z,0.40
2023-01-21T08:03:23.214Z,0.50
2023-01-21T08:08:25.141Z,0.50
2023-01-21T08:13:27.231Z,0.60
2023-01-21T08:18:30.108Z,0.60
2023-01-21T08:23:34.230Z,0.60
2023-01-21T08:29:04.267Z,0.70
2023-01-21T08:34:11.465Z,0.60
2023-01-21T08:39:19.599Z,0.80
2023-01-21T08:44:23.836Z,1.00
2023-01-21T08:49:27.861Z,1.00
2023-01-21T08:54:31.375Z,1.00
2023-01-21T08:59:39.996Z,1.10
2023-01-21T09:04:44.139Z,1.40
2023-01-21T09:09:49.506Z,1.50
2023-01-21T09:14:52.927Z,1.50
2023-01-21T09:19:56.617Z,1.50
2023-01-21T09:25:10.580Z,1.40
2023-01-21T09:30:14.280Z,1.70
2023-01-21T09:35:17.546Z,1.80
2023-01-21T09:40:21.001Z,2.00
2023-01-21T09:45:27.102Z,2.10
2023-01-21T09:50:32.431Z,2.20
2023-01-21T09:55:52.537Z,2.20
2023-01-21T10:01:25.085Z,2.40
2023-01-21T10:06:35.513Z,2.40
2023-01-21T10:12:06.576Z,2.30
2023-01-21T10:17:15.635Z,2.40
2023-01-21T10:22:24.169Z,2.00
2023-01-21T10:27:28.657Z,2.00
2023-01-21T10:32:30.795Z,2.00
2023-01-21T10:37:42.951Z,2.00
2023-01-21T10:42:59.953Z,2.30
2023-01-21T10:48:19.520Z,2.20
2023-01-21T10:53:42.012Z,2.10
2023-01-21T10:58:57.889Z,2.30
2023-01-21T11:04:06.238Z,2.10
2023-01-21T11:09:15.326Z,2.30
2023-01-21T11:14:18.112Z,2.60
2023-01-21T11:19:26.243Z,2.50
2023-01-21T11:24:29.814Z,2.80
2023-01-21T11:29:41.250Z,2.60
2023-01-21T11:34:48.066Z,2.60
2023-01-21T11:40:25.214Z,2.40
2023-01-21T11:45:37.343Z,2.10
2023-01-21T11:50:39.424Z,2.00
2023-01-21T11:55:45.428Z,2.00
2023-01-21T12:00:49.349Z,2.00
2023-01-21T12:05:53.330Z,2.20
2023-01-21T12:10:57.661Z,2.30
2023-01-21T12:16:20.708Z,2.10
2023-01-21T12:21:34.040Z,2.00
2023-01-21T12:26:51.587Z,1.90
2023-01-21T12:32:28.283Z,1.90
2023-01-21T12:37:37.313Z,1.80
2023-01-21T12:42:44.024Z,1.90
2023-01-21T12:47:51.068Z,2.00
2023-01-21T12:53:23.941Z,2.10
2023-01-21T12:58:36.210Z,1.90
2023-01-21T13:03:52.737Z,1.90
2023-01-21T13:09:31.570Z,2.00
2023-01-21T13:14:49.765Z,1.90
2023-01-21T13:19:54.847Z,1.90
2023-01-21T13:25:01.784Z,1.70
2023-01-21T13:30:15.596Z,1.60
2023-01-21T13:35:39.852Z,1.70
2023-01-21T13:40:52.176Z,1.70
2023-01-21T13:46:07.120Z,1.70
2023-01-21T13:51:29.926Z,1.60
2023-01-21T13:57:12.323Z,1.60
2023-01-21T14:02:42.913Z,1.70
2023-01-21T14:08:16.024Z,1.60
2023-01-21T14:13:30.685Z,1.50
2023-01-21T14:18:57.044Z,1.30
2023-01-21T14:24:34.117Z,1.30
2023-01-21T14:29:50.129Z,1.20
2023-01-21T14:35:29.074Z,1.20
2023-01-21T14:40:41.498Z,1.10
2023-01-21T14:45:55.609Z,1.10
2023-01-21T14:51:07.930Z,1.00
2023-01-21T14:56:25.558Z,1.00
2023-01-21T15:01:48.141Z,0.90
2023-01-21T15:07:04.005Z,0.90
2023-01-21T15:12:36.792Z,0.90
2023-01-21T15:17:58.544Z,0.90
2023-01-21T15:23:24.155Z,0.70
2023-01-21T15:29:00.337Z,0.60
2023-01-21T15:34:28.757Z,0.50
2023-01-21T15:39:37.992Z,0.50
2023-01-21T15:45:10.076Z,0.60
2023-01-21T15:50:48.021Z,0.60
2023-01-21T15:56:46.195Z,0.50
2023-01-21T16:02:15.606Z,0.50
2023-01-21T16:07:39.839Z,0.50
2023-01-21T16:13:20.946Z,0.50
2023-01-21T16:18:53.208Z,0.50
2023-01-21T16:23:59.973Z,0.40
2023-01-21T16:29:03.916Z,0.30
2023-01-21T16:34:07.100Z,0.10
2023-01-21T16:39:11.058Z,0.00
2023-01-21T16:44:17.147Z,0.00
2023-01-21T16:49:20.633Z,-0.10
2023-01-21T16:54:34.195Z,0.00
2023-01-21T16:59:46.195Z,-0.10
2023-01-21T17:04:52.776Z,-0.20
2023-01-21T17:10:32.458Z,-0.20
2023-01-21T17:15:42.068Z,-0.10
2023-01-21T17:21:07.839Z,-0.10
2023-01-21T17:26:32.051Z,-0.20
2023-01-21T17:31:41.746Z,-0.20
2023-01-21T17:36:57.181Z,-0.10
2023-01-21T17:42:12.257Z,-0.10
2023-01-21T17:47:26.833Z,-0.20
2023-01-21T17:52:30.250Z,-0.20
2023-01-21T17:57:38.067Z,-0.40
2023-01-21T18:02:41.458Z,-0.50
2023-01-21T18:07:44.480Z,-0.20
2023-01-21T18:12:47.588Z,-0.20
2023-01-21T18:17:56.312Z,-0.10
2023-01-21T18:23:00.139Z,-0.20
2023-01-21T18:28:04.164Z,-0.20
2023-01-21T18:33:07.169Z,-0.30
2023-01-21T18:38:16.310Z,-0.30
2023-01-21T18:43:19.317Z,-0.30
2023-01-21T18:48:28.573Z,-0.30
2023-01-21T18:53:33.919Z,-0.30
2023-01-21T18:58:41.794Z,-0.40
2023-01-21T19:09:06.892Z,-0.30
2023-01-21T19:14:10.393Z,-0.60
2023-01-21T19:19:17.304Z,-0.60
2023-01-21T19:24:23.570Z,-0.70
2023-01-21T19:29:30.578Z,-0.60
2023-01-21T19:34:34.193Z,-0.50
2023-01-21T19:39:43.235Z,-0.40
2023-01-21T19:44:46.458Z,-0.50
2023-01-21T19:49:50.988Z,-0.70
2023-01-21T19:54:58.389Z,-0.70
2023-01-21T20:00:05.111Z,-0.70
2023-01-21T20:05:19.557Z,-0.60
2023-01-21T20:10:30.748Z,-0.60
2023-01-21T20:15:40.700Z,-0.60
2023-01-21T20:20:43.814Z,-0.50
2023-01-21T20:25:56.033Z,-0.60
2023-01-21T20:31:07.494Z,-0.40
2023-01-21T20:36:23.859Z,-0.40
2023-01-21T20:41:30.273Z,-0.50
2023-01-21T20:46:34.666Z,-0.60
2023-01-21T20:51:38.493Z,-0.40
2023-01-21T20:56:43.939Z,-0.50
2023-01-21T21:01:47.568Z,-0.50
2023-01-21T21:06:53.656Z,-0.40
2023-01-21T21:11:56.638Z,-0.60
2023-01-21T21:17:00.361Z,-0.50
2023-01-21T21:22:03.763Z,-0.50
2023-01-21T21:27:07.405Z,-0.50
2023-01-21T21:32:17.751Z,-0.40
2023-01-21T21:37:22.221Z,-0.50
2023-01-21T21:42:44.559Z,-0.40
2023-01-21T21:48:19.518Z,-0.40
2023-01-21T21:53:26.706Z,-0.30
2023-01-21T21:58:30.536Z,-0.40
2023-01-21T22:03:41.846Z,-0.50
2023-01-21T22:08:51.787Z,-0.40
2023-01-21T22:13:59.625Z,-0.50
2023-01-21T22:19:09.880Z,-0.50
2023-01-21T22:24:13.102Z,-0.50
2023-01-21T22:29:16.198Z,-0.40
2023-01-21T22:34:19.596Z,-0.40
2023-01-21T22:39:22.309Z,-0.40
2023-01-21T22:44:25.694Z,-0.40
2023-01-21T22:49:29.643Z,-0.50
2023-01-21T22:54:35.393Z,-0.50
2023-01-21T22:59:48.950Z,-0.50
2023-01-21T23:04:52.702Z,-0.50
2023-01-21T23:09:55.965Z,-0.40
2023-01-21T23:14:59.193Z,-0.40
2023-01-21T23:20:02.702Z,-0.50
2023-01-21T23:25:09.072Z,-0.40
2023-01-21T23:30:14.213Z,-0.40
2023-01-21T23:35:19.410Z,-0.40
2023-01-21T23:40:22.701Z,-0.30
2023-01-21T23:45:24.808Z,-0.30
2023-01-21T23:50:26.805Z,-0.30
2023-01-21T23:55:29.011Z,-0.30
